Time;durP1;ratioP1;P1;durP2;ratioP2;P2;SDS_P1;SDS_P2;PMS_P1;PMS_P2;Temp;Humidity;BMP_temperature;BMP_pressure;BME280_temperature;BME280_humidity;BME280_pressure;Samples;Min_cycle;Max_cycle;Signal;HPM_P1;HPM_P2
2022/11/27 00:02:25;;;;;;;15.60;10.03;;;6.80;99.90;;;;;;5058339;28;20183;-76
2022/11/27 00:04:50;;;;;;;14.73;9.60;;;6.70;99.90;;;;;;5061822;28;20218;-76
2022/11/27 00:07:16;;;;;;;13.07;9.00;;;6.70;99.90;;;;;;5059627;28;20217;-76
2022/11/27 00:09:41;;;;;;;16.17;9.70;;;6.70;99.90;;;;;;5057192;28;20589;-77
2022/11/27 00:12:07;;;;;;;19.17;9.43;;;6.60;99.90;;;;;;5061564;28;20218;-76
2022/11/27 00:14:33;;;;;;;20.30;8.80;;;6.40;99.90;;;;;;5061160;28;20229;-76
2022/11/27 00:16:58;;;;;;;25.53;10.10;;;6.20;99.90;;;;;;5059389;28;20183;-76
2022/11/27 00:19:24;;;;;;;23.00;8.00;;;6.10;99.90;;;;;;5043461;28;20198;-75
2022/11/27 00:21:50;;;;;;;16.50;9.30;;;6.00;99.90;;;;;;5059459;28;20179;-75
2022/11/27 00:24:15;;;;;;;12.60;9.10;;;5.90;99.90;;;;;;5061495;28;20640;-76
2022/11/27 00:26:41;;;;;;;26.80;8.40;;;6.00;99.90;;;;;;5060352;28;20202;-76
2022/11/27 00:29:06;;;;;;;19.17;9.50;;;6.00;99.90;;;;;;5061512;28;20294;-76
2022/11/27 00:31:33;;;;;;;14.27;9.00;;;5.90;99.90;;;;;;5060843;28;20191;-77
2022/11/27 00:34:02;;;;;;;22.27;9.80;;;5.90;99.90;;;;;;5059668;28;20695;-75
2022/11/27 00:36:30;;;;;;;16.03;9.20;;;5.90;99.90;;;;;;5059174;28;20522;-76
2022/11/27 00:38:55;;;;;;;22.63;9.67;;;5.80;99.90;;;;;;5061527;28;20460;-75
2022/11/27 00:41:24;;;;;;;23.63;10.63;;;5.50;99.90;;;;;;5058957;28;20469;-74
2022/11/27 00:43:50;;;;;;;28.43;9.70;;;5.50;99.90;;;;;;5061610;28;20216;-74
2022/11/27 00:46:17;;;;;;;44.33;10.30;;;5.50;99.90;;;;;;5057404;28;20833;-75
2022/11/27 00:48:44;;;;;;;22.40;10.20;;;5.30;99.90;;;;;;5061458;28;21012;-74
2022/11/27 00:51:12;;;;;;;26.83;10.40;;;5.20;99.90;;;;;;5059376;28;20452;-76
2022/11/27 00:53:38;;;;;;;30.37;10.97;;;5.30;99.90;;;;;;5060854;28;20469;-74
2022/11/27 00:56:04;;;;;;;17.43;9.73;;;5.00;99.90;;;;;;5056009;28;20472;-74
2022/11/27 00:58:30;;;;;;;31.53;9.30;;;4.80;99.90;;;;;;5061537;28;20429;-73
2022/11/27 01:00:57;;;;;;;21.17;9.80;;;4.80;99.90;;;;;;5060332;28;20425;-74
2022/11/27 01:03:24;;;;;;;14.73;9.40;;;4.80;99.90;;;;;;5060935;28;20570;-75
2022/11/27 01:05:50;;;;;;;35.53;12.90;;;4.80;99.90;;;;;;5058224;28;20500;-75
2022/11/27 01:08:16;;;;;;;38.93;10.90;;;4.70;99.90;;;;;;5057218;28;21131;-75
2022/11/27 01:10:52;;;;;;;29.67;11.43;;;4.90;99.90;;;;;;5057827;28;20544;-75
2022/11/27 01:13:19;;;;;;;42.10;10.93;;;5.00;99.90;;;;;;5059835;28;20437;-75
2022/11/27 01:15:44;;;;;;;22.67;11.03;;;4.90;99.90;;;;;;5059767;28;20434;-75
2022/11/27 01:18:11;;;;;;;23.87;10.00;;;4.80;99.90;;;;;;5061076;28;20439;-75
2022/11/27 01:20:38;;;;;;;17.33;11.03;;;4.70;99.90;;;;;;5057880;28;20447;-75
2022/11/27 01:23:04;;;;;;;64.10;12.07;;;4.70;99.90;;;;;;5063968;28;20498;-77
2022/11/27 01:25:30;;;;;;;70.37;10.77;;;4.60;99.90;;;;;;5063165;28;20456;-76
2022/11/27 01:27:55;;;;;;;42.27;11.20;;;4.60;99.90;;;;;;5056333;28;20186;-76
2022/11/27 01:30:21;;;;;;;30.67;10.37;;;4.60;99.90;;;;;;5063253;28;20191;-76
2022/11/27 01:32:46;;;;;;;22.27;10.90;;;4.70;99.90;;;;;;5060895;28;20189;-76
2022/11/27 01:35:12;;;;;;;24.43;11.37;;;4.50;99.90;;;;;;5059819;28;20219;-76
2022/11/27 01:37:37;;;;;;;24.80;10.27;;;4.60;99.90;;;;;;5063624;28;20178;-76
2022/11/27 01:40:03;;;;;;;29.00;10.40;;;4.70;99.90;;;;;;5064522;28;20183;-76
2022/11/27 01:42:29;;;;;;;14.67;9.60;;;4.60;99.90;;;;;;5060901;28;20198;-76
2022/11/27 01:44:55;;;;;;;17.83;9.87;;;4.60;99.90;;;;;;5063466;28;20465;-75
2022/11/27 01:47:34;;;;;;;15.07;9.43;;;4.60;99.90;;;;;;5061994;28;20209;-75
2022/11/27 01:50:09;;;;;;;14.20;9.00;;;4.60;99.90;;;;;;5064328;28;20196;-75
2022/11/27 01:52:38;;;;;;;12.83;8.53;;;4.70;99.90;;;;;;5063438;28;20489;-75
2022/11/27 01:55:10;;;;;;;13.27;9.03;;;4.60;99.90;;;;;;5064140;28;20469;-76
2022/11/27 01:57:41;;;;;;;22.10;9.60;;;4.50;99.90;;;;;;5062382;28;20417;-76
2022/11/27 02:00:11;;;;;;;24.40;8.90;;;4.70;99.90;;;;;;5047251;28;20811;-76
2022/11/27 02:02:37;;;;;;;15.60;8.83;;;4.70;99.90;;;;;;5059911;28;20883;-76
2022/11/27 02:05:03;;;;;;;18.93;8.47;;;4.70;99.90;;;;;;5062687;28;20776;-76
2022/11/27 02:07:28;;;;;;;19.10;9.37;;;4.60;99.90;;;;;;5063054;28;20194;-76
2022/11/27 02:09:54;;;;;;;18.10;9.97;;;4.70;99.90;;;;;;5064417;28;20819;-76
2022/11/27 02:12:32;;;;;;;13.90;8.43;;;4.70;99.90;;;;;;5064240;28;20323;-77
2022/11/27 02:15:25;;;;;;;22.00;9.53;;;4.80;99.90;;;;;;5062000;28;20351;-76
2022/11/27 02:17:59;;;;;;;19.53;9.73;;;4.80;99.90;;;;;;5064590;28;20422;-76
2022/11/27 02:20:41;;;;;;;16.70;9.47;;;5.00;99.90;;;;;;5059998;28;20434;-75
2022/11/27 02:23:35;;;;;;;19.37;8.80;;;5.00;99.90;;;;;;5061531;28;20421;-75
2022/11/27 02:26:33;;;;;;;27.50;8.90;;;4.90;99.90;;;;;;5060350;28;20472;-74
2022/11/27 02:29:07;;;;;;;14.43;8.93;;;4.90;99.90;;;;;;5060543;28;20489;-75
2022/11/27 02:32:08;;;;;;;32.40;8.97;;;4.90;99.90;;;;;;5044632;28;20472;-74
2022/11/27 02:34:55;;;;;;;21.70;8.50;;;4.90;99.90;;;;;;5051759;28;20598;-75
2022/11/27 02:37:29;;;;;;;11.93;8.80;;;5.10;99.90;;;;;;5061449;28;20929;-74
2022/11/27 02:40:03;;;;;;;17.97;9.50;;;5.10;99.90;;;;;;5059541;28;20441;-74
2022/11/27 02:42:35;;;;;;;17.70;7.73;;;5.10;99.90;;;;;;5058673;28;20852;-75
2022/11/27 02:45:13;;;;;;;17.70;9.57;;;5.10;99.90;;;;;;5044337;28;20453;-75
2022/11/27 02:47:44;;;;;;;20.27;8.97;;;5.10;99.90;;;;;;5060531;28;20519;-75
2022/11/27 02:50:15;;;;;;;15.50;8.80;;;5.10;99.90;;;;;;5062144;28;20425;-75
2022/11/27 02:52:43;;;;;;;15.47;9.30;;;5.00;99.90;;;;;;5061335;28;20999;-75
2022/11/27 02:55:14;;;;;;;15.70;9.63;;;5.00;99.90;;;;;;5060528;28;20588;-75
2022/11/27 02:57:42;;;;;;;16.43;8.77;;;5.10;99.90;;;;;;5062723;28;20429;-74
2022/11/27 03:00:09;;;;;;;19.90;9.07;;;5.20;99.90;;;;;;5060054;28;20441;-74
2022/11/27 03:02:40;;;;;;;12.47;8.47;;;5.20;99.90;;;;;;5060102;28;20445;-74
2022/11/27 03:05:11;;;;;;;12.57;8.73;;;5.30;99.90;;;;;;5062196;28;20579;-74
2022/11/27 03:07:52;;;;;;;13.70;9.50;;;5.40;99.90;;;;;;5059982;28;20433;-74
2022/11/27 03:10:38;;;;;;;17.17;9.43;;;5.50;99.90;;;;;;5063152;28;20464;-74
2022/11/27 03:13:04;;;;;;;16.40;8.10;;;5.50;99.90;;;;;;5062000;28;20437;-74
2022/11/27 03:15:52;;;;;;;12.80;8.33;;;5.60;99.90;;;;;;5062266;28;20996;-74
2022/11/27 03:18:22;;;;;;;14.70;7.40;;;5.60;99.90;;;;;;5063962;28;20182;-73
2022/11/27 03:20:54;;;;;;;20.77;7.50;;;5.60;99.90;;;;;;5060915;28;20410;-74
2022/11/27 03:23:20;;;;;;;11.67;7.93;;;5.70;99.90;;;;;;5061254;28;20486;-74
2022/11/27 03:25:45;;;;;;;14.20;8.03;;;5.70;99.90;;;;;;5057598;28;20465;-73
2022/11/27 03:28:13;;;;;;;14.10;8.07;;;5.80;99.90;;;;;;5061897;28;20183;-74
2022/11/27 03:30:40;;;;;;;15.10;7.60;;;5.80;99.90;;;;;;5059526;28;20810;-74
2022/11/27 03:33:06;;;;;;;13.43;7.80;;;5.90;99.90;;;;;;5057047;28;20434;-74
2022/11/27 03:35:31;;;;;;;13.00;8.47;;;5.90;99.90;;;;;;5065063;28;21116;-75
2022/11/27 03:37:57;;;;;;;13.27;7.80;;;6.00;99.90;;;;;;5058055;28;20430;-74
2022/11/27 03:40:29;;;;;;;12.63;8.00;;;6.00;99.90;;;;;;5061922;28;20195;-74
2022/11/27 03:43:24;;;;;;;15.77;8.50;;;6.10;99.90;;;;;;5062273;28;20191;-74
2022/11/27 03:46:03;;;;;;;14.63;8.17;;;6.10;99.90;;;;;;5053285;28;20458;-74
2022/11/27 03:48:37;;;;;;;13.90;7.70;;;6.20;99.90;;;;;;5059997;28;20441;-74
2022/11/27 03:51:11;;;;;;;15.43;8.37;;;6.20;99.90;;;;;;5061557;28;20483;-74
2022/11/27 03:54:02;;;;;;;13.50;8.53;;;6.30;99.90;;;;;;5059693;28;20510;-74
2022/11/27 03:56:56;;;;;;;12.33;7.30;;;6.30;99.90;;;;;;5056504;28;20465;-74
2022/11/27 03:59:30;;;;;;;12.83;7.93;;;6.30;99.90;;;;;;5059100;28;20447;-73
2022/11/27 04:01:55;;;;;;;10.80;7.63;;;6.30;99.90;;;;;;5059683;28;20429;-74
2022/11/27 04:04:21;;;;;;;16.60;8.00;;;6.30;99.90;;;;;;5060732;28;20440;-74
2022/11/27 04:06:46;;;;;;;18.73;8.57;;;6.40;99.90;;;;;;5062233;28;20211;-74
2022/11/27 04:09:12;;;;;;;19.37;9.03;;;6.40;99.90;;;;;;5058442;28;20187;-75
2022/11/27 04:11:38;;;;;;;12.73;8.37;;;6.50;99.90;;;;;;5061127;28;20187;-75
2022/11/27 04:14:03;;;;;;;19.60;8.27;;;6.50;99.90;;;;;;5058726;28;20294;-74
2022/11/27 04:16:29;;;;;;;18.10;9.20;;;6.50;99.90;;;;;;5061597;28;20563;-76
2022/11/27 04:18:55;;;;;;;19.30;9.80;;;6.50;99.90;;;;;;5059587;28;20198;-76
2022/11/27 04:21:20;;;;;;;15.93;9.40;;;6.60;99.90;;;;;;5062545;28;20436;-74
2022/11/27 04:23:46;;;;;;;15.80;8.90;;;6.60;99.90;;;;;;5061205;28;20241;-75
2022/11/27 04:26:12;;;;;;;17.07;9.43;;;6.60;99.90;;;;;;5043003;28;20215;-75
2022/11/27 04:28:37;;;;;;;14.40;8.63;;;6.60;99.90;;;;;;5059281;28;20262;-74
2022/11/27 04:31:03;;;;;;;15.80;8.33;;;6.70;99.90;;;;;;5060058;28;20194;-74
2022/11/27 04:33:29;;;;;;;14.93;8.73;;;6.70;99.90;;;;;;5057323;28;20194;-74
2022/11/27 04:35:54;;;;;;;14.67;7.90;;;6.70;99.90;;;;;;5061097;28;20674;-75
2022/11/27 04:38:21;;;;;;;15.20;9.07;;;6.70;99.90;;;;;;5060215;28;20425;-75
2022/11/27 04:40:46;;;;;;;16.40;8.53;;;6.70;99.90;;;;;;5057208;28;20180;-75
2022/11/27 04:43:12;;;;;;;16.43;9.10;;;6.80;99.90;;;;;;5061398;28;20425;-75
2022/11/27 04:45:38;;;;;;;15.30;8.23;;;6.80;99.90;;;;;;5041944;28;20268;-75
2022/11/27 04:48:04;;;;;;;11.60;6.77;;;6.80;99.90;;;;;;5061781;28;20252;-75
2022/11/27 04:50:30;;;;;;;14.47;8.17;;;6.80;99.90;;;;;;5057567;28;20468;-74
2022/11/27 04:52:55;;;;;;;12.97;7.90;;;6.80;99.90;;;;;;5061454;28;20858;-77
2022/11/27 04:55:21;;;;;;;14.70;8.97;;;6.80;99.90;;;;;;5060946;28;20610;-74
2022/11/27 04:57:47;;;;;;;17.33;8.80;;;6.70;99.90;;;;;;5058753;28;20570;-73
2022/11/27 05:00:14;;;;;;;15.83;7.83;;;6.80;99.90;;;;;;5059834;28;20448;-74
2022/11/27 05:02:39;;;;;;;10.90;6.47;;;6.80;99.90;;;;;;5041052;28;20232;-77
2022/11/27 05:05:05;;;;;;;16.37;8.37;;;6.70;99.90;;;;;;5055180;28;20468;-73
2022/11/27 05:07:31;;;;;;;15.27;7.80;;;6.80;99.90;;;;;;5054423;28;20656;-75
2022/11/27 05:09:56;;;;;;;13.43;8.10;;;6.70;99.90;;;;;;5059520;28;20187;-74
2022/11/27 05:12:22;;;;;;;14.47;8.40;;;6.80;99.90;;;;;;5056498;28;20215;-75
2022/11/27 05:14:48;;;;;;;13.80;8.60;;;6.80;99.90;;;;;;5055037;28;20207;-75
2022/11/27 05:17:14;;;;;;;13.37;8.60;;;6.70;99.90;;;;;;5054896;28;20186;-73
2022/11/27 05:19:39;;;;;;;15.13;8.37;;;6.70;99.90;;;;;;5054919;28;20179;-75
2022/11/27 05:22:05;;;;;;;14.77;7.77;;;6.70;99.90;;;;;;5061161;28;20275;-75
2022/11/27 05:24:30;;;;;;;12.90;7.80;;;6.70;99.90;;;;;;5054514;28;20211;-75
2022/11/27 05:26:56;;;;;;;13.77;8.83;;;6.70;99.90;;;;;;5054212;28;20199;-75
2022/11/27 05:29:23;;;;;;;19.73;8.80;;;6.70;99.90;;;;;;5054931;28;20272;-76
2022/11/27 05:31:49;;;;;;;14.90;8.23;;;6.70;99.90;;;;;;5052376;28;20445;-75
2022/11/27 05:34:15;;;;;;;16.40;8.83;;;6.70;99.90;;;;;;5056447;28;20500;-75
2022/11/27 05:36:41;;;;;;;12.90;8.50;;;6.70;99.90;;;;;;5056490;28;20593;-75
2022/11/27 05:39:09;;;;;;;18.77;8.40;;;6.70;99.90;;;;;;5054052;28;20468;-75
2022/11/27 05:41:36;;;;;;;14.53;8.03;;;6.80;99.90;;;;;;5056232;28;20456;-75
2022/11/27 05:44:02;;;;;;;12.27;8.00;;;6.80;99.90;;;;;;5055363;28;20433;-75
2022/11/27 05:46:27;;;;;;;29.90;15.00;;;6.80;99.90;;;;;;5055447;28;20472;-75
2022/11/27 05:48:53;;;;;;;16.70;10.10;;;6.80;99.90;;;;;;5053936;28;20183;-75
2022/11/27 05:51:18;;;;;;;17.50;9.70;;;6.80;99.90;;;;;;5057079;28;20194;-75
2022/11/27 05:53:44;;;;;;;15.07;9.20;;;6.80;99.90;;;;;;5056225;28;20199;-74
2022/11/27 05:56:13;;;;;;;15.10;9.40;;;6.80;99.90;;;;;;5056570;28;20221;-74
2022/11/27 05:58:39;;;;;;;12.90;7.13;;;6.70;99.90;;;;;;5053186;28;20838;-74
2022/11/27 06:01:06;;;;;;;15.37;9.30;;;6.70;99.90;;;;;;5053387;28;20865;-74
2022/11/27 06:03:32;;;;;;;13.37;7.57;;;6.70;99.90;;;;;;5038431;28;20430;-75
2022/11/27 06:05:57;;;;;;;16.30;8.70;;;6.70;99.90;;;;;;5051867;28;20977;-75
2022/11/27 06:08:23;;;;;;;13.07;7.90;;;6.70;99.90;;;;;;5055784;28;20440;-74
2022/11/27 06:10:49;;;;;;;16.90;8.97;;;6.70;99.90;;;;;;5060037;28;20548;-77
2022/11/27 06:13:15;;;;;;;15.83;8.87;;;6.70;99.90;;;;;;5061033;28;20183;-77
2022/11/27 06:15:41;;;;;;;13.90;8.67;;;6.70;99.90;;;;;;5056275;28;20534;-77
2022/11/27 06:18:06;;;;;;;13.50;8.17;;;6.70;99.90;;;;;;5063635;28;20175;-75
2022/11/27 06:20:32;;;;;;;14.10;7.50;;;6.70;99.90;;;;;;5060291;28;20528;-75
2022/11/27 06:22:58;;;;;;;13.70;7.50;;;6.70;99.90;;;;;;5058366;28;20262;-76
2022/11/27 06:25:24;;;;;;;13.70;7.30;;;6.70;99.90;;;;;;5054652;28;20468;-76
2022/11/27 06:27:51;;;;;;;12.40;7.60;;;6.60;99.90;;;;;;5056280;28;20193;-75
2022/11/27 06:30:17;;;;;;;15.53;8.30;;;6.60;99.90;;;;;;5056835;28;20516;-75
2022/11/27 06:32:42;;;;;;;15.23;6.63;;;6.60;99.90;;;;;;5057378;28;21360;-75
2022/11/27 06:35:09;;;;;;;12.27;7.53;;;6.60;99.90;;;;;;5058722;28;20206;-75
2022/11/27 06:37:34;;;;;;;11.83;7.60;;;6.60;99.90;;;;;;5056754;28;20209;-75
2022/11/27 06:40:00;;;;;;;13.60;8.40;;;6.50;99.90;;;;;;5053181;28;21044;-77
2022/11/27 06:42:29;;;;;;;12.60;8.37;;;6.50;99.90;;;;;;5056337;28;20175;-76
2022/11/27 06:44:55;;;;;;;10.73;7.40;;;6.50;99.90;;;;;;5057418;28;20714;-76
2022/11/27 06:47:21;;;;;;;16.70;8.03;;;6.50;99.90;;;;;;5057144;28;20437;-75
2022/11/27 06:49:46;;;;;;;10.90;6.20;;;6.50;99.90;;;;;;5058901;28;20429;-74
2022/11/27 06:52:12;;;;;;;11.40;6.67;;;6.50;99.90;;;;;;5057563;28;20183;-75
2022/11/27 06:54:37;;;;;;;12.77;7.70;;;6.40;99.90;;;;;;5057170;28;20751;-74
2022/11/27 06:57:03;;;;;;;16.60;7.40;;;6.40;99.90;;;;;;5058831;28;20743;-76
2022/11/27 06:59:28;;;;;;;13.50;6.90;;;6.50;99.90;;;;;;5058617;28;20210;-75
2022/11/27 07:01:54;;;;;;;10.63;6.13;;;6.50;99.90;;;;;;5059493;28;20186;-75
2022/11/27 07:04:20;;;;;;;11.57;7.10;;;6.50;99.90;;;;;;5058763;28;21743;-75
2022/11/27 07:06:45;;;;;;;9.00;6.00;;;6.50;99.90;;;;;;5057368;28;20266;-74
2022/11/27 07:09:11;;;;;;;9.70;5.93;;;6.50;99.90;;;;;;5055757;28;20183;-75
2022/11/27 07:11:38;;;;;;;10.97;6.40;;;6.40;99.90;;;;;;5056880;28;20217;-74
2022/11/27 07:14:04;;;;;;;11.50;6.97;;;6.40;99.90;;;;;;5053836;28;20207;-75
2022/11/27 07:16:33;;;;;;;12.33;6.77;;;6.40;99.90;;;;;;5055559;28;20441;-76
2022/11/27 07:19:01;;;;;;;12.00;7.00;;;6.40;99.90;;;;;;5053555;28;20458;-75
2022/11/27 07:21:27;;;;;;;9.33;5.93;;;6.40;99.90;;;;;;5057602;28;20487;-76
2022/11/27 07:23:55;;;;;;;10.60;8.33;;;6.40;99.90;;;;;;5057259;28;20859;-75
2022/11/27 07:26:25;;;;;;;10.07;7.23;;;6.40;99.90;;;;;;5040635;28;21370;-74
2022/11/27 07:28:52;;;;;;;9.57;5.70;;;6.40;99.90;;;;;;5058562;28;20461;-73
2022/11/27 07:31:23;;;;;;;7.43;5.47;;;6.40;99.90;;;;;;5058750;28;20429;-74
2022/11/27 07:33:51;;;;;;;8.40;5.70;;;6.40;99.90;;;;;;5041381;28;20429;-76
2022/11/27 07:36:20;;;;;;;8.60;6.30;;;6.40;99.90;;;;;;5055958;28;20816;-76
2022/11/27 07:38:46;;;;;;;9.03;7.37;;;6.40;99.90;;;;;;5056717;28;20441;-76
2022/11/27 07:41:12;;;;;;;10.97;8.50;;;6.40;99.90;;;;;;5056072;28;20457;-76
2022/11/27 07:43:38;;;;;;;20.83;14.80;;;6.40;99.90;;;;;;5055030;28;20443;-76
2022/11/27 07:46:06;;;;;;;11.63;9.00;;;6.30;99.90;;;;;;5054979;28;20603;-76
2022/11/27 07:48:31;;;;;;;8.93;6.60;;;6.30;99.90;;;;;;5053525;28;20457;-75
2022/11/27 07:50:57;;;;;;;10.57;7.20;;;6.20;99.90;;;;;;5059006;28;20448;-76
2022/11/27 07:53:23;;;;;;;7.47;6.03;;;6.20;99.90;;;;;;5056088;28;20195;-75
2022/11/27 07:55:48;;;;;;;8.60;6.83;;;6.20;99.90;;;;;;5054681;28;20222;-76
2022/11/27 07:58:14;;;;;;;7.00;5.57;;;6.30;99.90;;;;;;5054676;28;20191;-77
2022/11/27 08:00:39;;;;;;;6.13;4.53;;;6.30;99.90;;;;;;5059005;28;20207;-78
2022/11/27 08:03:05;;;;;;;6.60;5.57;;;6.20;99.90;;;;;;5057604;28;20183;-76
2022/11/27 08:05:34;;;;;;;7.87;6.47;;;6.20;99.90;;;;;;5054946;28;20226;-78
2022/11/27 08:08:02;;;;;;;7.67;5.73;;;6.20;99.90;;;;;;5055208;28;20226;-80
2022/11/27 08:10:29;;;;;;;7.50;5.37;;;6.20;99.90;;;;;;5035449;28;20509;-78
2022/11/27 08:12:55;;;;;;;7.47;5.37;;;6.30;99.90;;;;;;5058876;28;20434;-76
2022/11/27 08:15:21;;;;;;;8.17;6.13;;;6.30;99.90;;;;;;5055795;28;20993;-77
2022/11/27 08:17:46;;;;;;;7.60;6.13;;;6.20;99.90;;;;;;5054884;28;20523;-75
2022/11/27 08:20:12;;;;;;;7.60;5.73;;;6.20;99.90;;;;;;5056595;28;20198;-79
2022/11/27 08:22:38;;;;;;;8.77;6.23;;;6.20;99.90;;;;;;5053240;28;20212;-74
2022/11/27 08:25:04;;;;;;;9.70;5.97;;;6.30;99.90;;;;;;5056481;28;20215;-77
2022/11/27 08:27:32;;;;;;;8.53;6.17;;;6.30;99.90;;;;;;5055186;28;20196;-78
2022/11/27 08:29:58;;;;;;;7.30;5.47;;;6.30;99.90;;;;;;5055283;28;20502;-77
2022/11/27 08:32:24;;;;;;;6.43;4.70;;;6.40;99.90;;;;;;5051972;28;20533;-76
2022/11/27 08:34:49;;;;;;;8.60;6.13;;;6.40;99.90;;;;;;5056734;28;20473;-79
2022/11/27 08:37:15;;;;;;;5.17;4.67;;;6.40;99.90;;;;;;5053644;28;20183;-76
2022/11/27 08:39:40;;;;;;;6.67;5.07;;;6.30;99.90;;;;;;5053317;28;20191;-74
2022/11/27 08:42:06;;;;;;;5.97;4.70;;;6.30;99.90;;;;;;5054306;28;20552;-74
2022/11/27 08:44:31;;;;;;;7.93;5.70;;;6.40;99.90;;;;;;5055948;28;20214;-79
2022/11/27 08:46:57;;;;;;;8.07;5.57;;;6.40;99.90;;;;;;5055721;28;20217;-74
2022/11/27 08:49:22;;;;;;;7.83;5.40;;;6.50;99.90;;;;;;5057564;28;20195;-76
2022/11/27 08:51:48;;;;;;;8.70;6.63;;;6.60;99.90;;;;;;5055992;28;20222;-76
2022/11/27 08:54:14;;;;;;;6.23;5.63;;;6.70;99.90;;;;;;5055225;28;20212;-77
2022/11/27 08:56:39;;;;;;;8.23;5.60;;;6.80;99.90;;;;;;5058115;28;20183;-77
2022/11/27 08:59:05;;;;;;;7.37;5.73;;;6.90;99.90;;;;;;5056094;28;20184;-77
2022/11/27 09:01:31;;;;;;;6.80;5.33;;;7.00;99.90;;;;;;5055120;28;20237;-77
2022/11/27 09:03:58;;;;;;;7.00;5.50;;;7.00;99.90;;;;;;5054113;28;20192;-78
2022/11/27 09:06:28;;;;;;;7.43;5.37;;;7.10;99.90;;;;;;5053239;28;20667;-77
2022/11/27 09:09:02;;;;;;;8.53;5.90;;;7.10;99.90;;;;;;5053247;28;20852;-77
2022/11/27 09:11:33;;;;;;;7.97;6.13;;;7.10;99.90;;;;;;5054171;28;20445;-77
2022/11/27 09:14:00;;;;;;;7.50;6.13;;;7.10;99.90;;;;;;5055863;28;20468;-76
2022/11/27 09:16:27;;;;;;;7.30;5.90;;;7.10;99.90;;;;;;5057135;28;20585;-76
2022/11/27 09:18:53;;;;;;;6.70;5.97;;;7.20;99.90;;;;;;5055016;28;20429;-75
2022/11/27 09:21:21;;;;;;;7.50;6.00;;;7.30;99.90;;;;;;5053060;28;20831;-78
2022/11/27 09:23:47;;;;;;;8.37;6.27;;;7.40;99.90;;;;;;5057461;28;20244;-79
2022/11/27 09:26:15;;;;;;;8.33;6.80;;;7.30;99.90;;;;;;5055122;28;20552;-79
2022/11/27 09:28:42;;;;;;;9.80;6.93;;;7.30;99.90;;;;;;5052621;28;20471;-79
2022/11/27 09:31:10;;;;;;;9.53;8.40;;;7.40;99.90;;;;;;5056666;28;20472;-79
2022/11/27 09:33:37;;;;;;;9.87;6.63;;;7.40;99.90;;;;;;5055691;28;20441;-78
2022/11/27 09:36:08;;;;;;;6.70;6.00;;;7.40;99.90;;;;;;5055431;28;20484;-76
2022/11/27 09:38:34;;;;;;;8.00;6.17;;;7.40;99.90;;;;;;5054473;28;20452;-77
2022/11/27 09:41:10;;;;;;;8.07;6.27;;;7.50;99.90;;;;;;5050486;28;20437;-76
2022/11/27 09:43:44;;;;;;;8.10;7.03;;;7.70;99.90;;;;;;5058147;28;21321;-77
2022/11/27 09:46:16;;;;;;;9.20;7.10;;;7.70;99.90;;;;;;5059097;28;20457;-76
2022/11/27 09:48:44;;;;;;;9.40;7.87;;;7.60;99.90;;;;;;5056232;28;20468;-83
2022/11/27 09:51:27;;;;;;;10.03;8.10;;;7.60;99.90;;;;;;5058976;28;20472;-79
2022/11/27 09:54:04;;;;;;;10.47;8.80;;;7.60;99.90;;;;;;5060520;28;20969;-79
2022/11/27 09:56:33;;;;;;;12.73;8.97;;;7.50;99.90;;;;;;5066754;28;20711;-80
2022/11/27 09:58:59;;;;;;;11.33;9.10;;;7.60;99.90;;;;;;5060377;28;20549;-80
2022/11/27 10:01:30;;;;;;;12.53;10.30;;;7.50;99.90;;;;;;5060904;28;20516;-80
2022/11/27 10:03:56;;;;;;;12.83;9.63;;;7.60;99.90;;;;;;5055964;28;20438;-80
2022/11/27 10:06:26;;;;;;;12.03;9.97;;;7.50;99.90;;;;;;5056877;28;20481;-78
2022/11/27 10:09:01;;;;;;;13.77;10.53;;;7.70;99.90;;;;;;5060069;28;20292;-76
2022/11/27 10:11:41;;;;;;;17.27;12.10;;;7.60;99.90;;;;;;5066600;28;20448;-78
2022/11/27 10:14:35;;;;;;;16.37;10.77;;;7.70;99.90;;;;;;5063319;28;20464;-76
2022/11/27 10:17:03;;;;;;;14.57;10.90;;;7.70;99.90;;;;;;5059821;28;20483;-77
2022/11/27 10:19:37;;;;;;;16.00;11.50;;;7.80;99.90;;;;;;5062317;28;20424;-77
2022/11/27 10:22:16;;;;;;;16.47;11.63;;;7.80;99.90;;;;;;5061136;28;20468;-79
2022/11/27 10:25:01;;;;;;;21.13;13.07;;;7.70;99.90;;;;;;5062621;28;20449;-79
2022/11/27 10:27:40;;;;;;;17.27;12.40;;;7.70;99.90;;;;;;5056965;28;20450;-81
2022/11/27 10:30:16;;;;;;;15.63;11.27;;;7.70;99.90;;;;;;5057187;28;20534;-81
2022/11/27 10:32:45;;;;;;;18.87;14.30;;;7.70;99.90;;;;;;5059799;28;20454;-78
2022/11/27 10:35:19;;;;;;;19.77;13.37;;;7.50;99.90;;;;;;5057347;28;20475;-78
2022/11/27 10:38:08;;;;;;;17.97;12.33;;;7.50;99.90;;;;;;5059839;28;20957;-78
2022/11/27 10:40:42;;;;;;;19.30;12.70;;;7.40;99.90;;;;;;5057901;28;20528;-78
2022/11/27 10:43:21;;;;;;;19.23;13.57;;;7.50;99.90;;;;;;5059392;28;20444;-78
2022/11/27 10:45:55;;;;;;;20.73;13.00;;;7.50;99.90;;;;;;5054269;28;20462;-78
2022/11/27 10:48:21;;;;;;;21.60;14.00;;;7.40;99.90;;;;;;5060576;28;20891;-79
2022/11/27 10:50:47;;;;;;;19.13;13.43;;;7.50;99.90;;;;;;5059440;28;20888;-78
2022/11/27 10:53:29;;;;;;;22.50;13.80;;;7.60;99.90;;;;;;5061070;28;20528;-79
2022/11/27 10:56:22;;;;;;;16.90;11.63;;;7.60;99.90;;;;;;5059643;28;20214;-79
2022/11/27 10:59:05;;;;;;;20.40;12.70;;;7.70;99.90;;;;;;5055227;28;20537;-78
2022/11/27 11:01:44;;;;;;;17.40;12.93;;;7.70;99.90;;;;;;5069180;28;20453;-76
2022/11/27 11:04:12;;;;;;;20.33;12.40;;;7.70;99.90;;;;;;5058882;28;20436;-78
2022/11/27 11:06:45;;;;;;;19.67;14.77;;;7.70;99.90;;;;;;5058765;28;20433;-79
2022/11/27 11:09:18;;;;;;;18.87;12.70;;;7.70;99.90;;;;;;5041127;28;20966;-77
2022/11/27 11:11:43;;;;;;;19.03;14.53;;;7.80;99.90;;;;;;5067121;28;20445;-77
2022/11/27 11:14:24;;;;;;;19.13;13.53;;;7.60;99.90;;;;;;5043307;28;20516;-76
2022/11/27 11:16:51;;;;;;;20.30;13.33;;;7.80;99.90;;;;;;5061816;28;20663;-77
2022/11/27 11:19:30;;;;;;;17.80;14.40;;;7.80;99.90;;;;;;5068612;28;20437;-77
2022/11/27 11:21:57;;;;;;;19.00;12.97;;;7.80;99.90;;;;;;5041540;28;20458;-80
2022/11/27 11:24:31;;;;;;;18.77;13.80;;;7.70;99.90;;;;;;5060533;28;20472;-80
2022/11/27 11:27:16;;;;;;;26.60;16.00;;;7.80;99.90;;;;;;5039889;28;20437;-80
2022/11/27 11:29:45;;;;;;;20.00;12.80;;;7.90;99.90;;;;;;5062170;28;20806;-80
2022/11/27 11:32:18;;;;;;;18.50;13.20;;;7.80;99.90;;;;;;5052888;28;20437;-77
2022/11/27 11:34:56;;;;;;;21.70;14.13;;;7.90;99.90;;;;;;5050537;28;20910;-76
2022/11/27 11:37:33;;;;;;;21.30;14.17;;;7.80;99.90;;;;;;5059177;28;20445;-73
2022/11/27 11:40:07;;;;;;;19.20;13.77;;;7.80;99.90;;;;;;5059228;28;20992;-74
2022/11/27 11:42:35;;;;;;;22.93;14.20;;;7.70;99.90;;;;;;5057581;28;20691;-75
2022/11/27 11:45:21;;;;;;;23.00;15.30;;;7.70;99.90;;;;;;5058683;28;20468;-75
2022/11/27 11:47:52;;;;;;;17.50;13.53;;;7.80;99.90;;;;;;5061341;28;20430;-75
2022/11/27 11:50:41;;;;;;;23.63;15.50;;;7.70;99.90;;;;;;5056171;28;20435;-74
2022/11/27 11:53:31;;;;;;;24.33;15.70;;;7.70;99.90;;;;;;5055585;28;20805;-74
2022/11/27 11:56:25;;;;;;;22.93;15.20;;;7.80;99.90;;;;;;5055474;28;20480;-74
2022/11/27 11:59:07;;;;;;;23.80;15.37;;;7.90;99.90;;;;;;5053733;28;20441;-75
2022/11/27 12:01:43;;;;;;;24.47;17.00;;;7.80;99.90;;;;;;5054178;28;20441;-74
2022/11/27 12:04:26;;;;;;;19.50;13.43;;;7.80;99.90;;;;;;5055989;28;20535;-74
2022/11/27 12:07:23;;;;;;;24.50;13.97;;;7.90;99.90;;;;;;5056149;28;20446;-75
2022/11/27 12:10:33;;;;;;;23.27;14.33;;;7.80;99.90;;;;;;5058264;28;20437;-74
2022/11/27 12:13:24;;;;;;;20.83;13.20;;;7.70;99.90;;;;;;5052514;28;20536;-78
2022/11/27 12:16:06;;;;;;;23.53;14.37;;;7.90;99.90;;;;;;5056381;28;20480;-77
2022/11/27 12:19:07;;;;;;;21.77;13.30;;;7.70;99.90;;;;;;5035845;28;21034;-79
2022/11/27 12:22:02;;;;;;;20.00;13.07;;;7.70;99.90;;;;;;5052166;28;20433;-79
2022/11/27 12:24:46;;;;;;;24.40;13.50;;;7.80;99.90;;;;;;5055834;28;20534;-81
2022/11/27 12:27:34;;;;;;;19.50;12.87;;;7.70;99.90;;;;;;5065425;28;20473;-78
2022/11/27 12:30:18;;;;;;;20.53;12.97;;;7.80;99.90;;;;;;5054152;28;20550;-76
2022/11/27 12:33:00;;;;;;;20.23;12.50;;;7.80;99.90;;;;;;5052100;28;20498;-77
2022/11/27 12:35:32;;;;;;;19.80;12.10;;;7.80;99.90;;;;;;5054319;28;20661;-74
2022/11/27 12:38:32;;;;;;;18.87;12.13;;;7.80;99.90;;;;;;5053794;28;20863;-77
2022/11/27 12:41:15;;;;;;;19.40;11.77;;;7.80;99.90;;;;;;5050025;28;21227;-79
2022/11/27 12:43:47;;;;;;;21.67;14.33;;;7.70;99.90;;;;;;5051006;28;20448;-79
2022/11/27 12:46:25;;;;;;;19.60;13.60;;;7.70;99.90;;;;;;5053692;28;20845;-79
2022/11/27 12:48:59;;;;;;;25.10;14.03;;;7.80;99.90;;;;;;5055028;28;20421;-80
2022/11/27 12:51:49;;;;;;;21.63;13.33;;;7.70;99.90;;;;;;5054726;28;20445;-78
2022/11/27 12:54:24;;;;;;;13.70;10.00;;;7.80;99.90;;;;;;5055057;28;20555;-75
2022/11/27 12:56:56;;;;;;;16.00;11.57;;;7.80;99.90;;;;;;5050551;28;20497;-75
2022/11/27 12:59:54;;;;;;;16.13;12.10;;;7.70;99.90;;;;;;5050011;28;20459;-74
2022/11/27 13:02:45;;;;;;;17.87;11.47;;;7.70;99.90;;;;;;5024842;28;20435;-73
2022/11/27 13:05:19;;;;;;;16.63;12.40;;;7.90;99.90;;;;;;5055636;28;20473;-76